Time;durP1;ratioP1;P1;durP2;ratioP2;P2;SDS_P1;SDS_P2;PMS_P1;PMS_P2;Temp;Humidity;BMP_temperature;BMP_pressure;BME280_temperature;BME280_humidity;BME280_pressure;Samples;Min_cycle;Max_cycle;Signal;HPM_P1;HPM_P2
2024/01/01 00:00:18;;;;;;;11.32;6.07;;;12.20;62.60;;;;;;5028199;28;20103;-52
2024/01/01 00:02:47;;;;;;;11.55;5.55;;;12.20;62.80;;;;;;5031801;28;20044;-56
2024/01/01 00:05:14;;;;;;;9.05;6.25;;;12.20;62.60;;;;;;5028262;28;20065;-53
2024/01/01 00:07:41;;;;;;;11.48;7.38;;;12.20;62.60;;;;;;5013542;28;20305;-56
2024/01/01 00:10:08;;;;;;;10.98;6.38;;;12.20;62.60;;;;;;5030762;28;20048;-54
2024/01/01 00:12:40;;;;;;;12.38;6.53;;;12.20;62.40;;;;;;5032201;28;20045;-56
2024/01/01 00:15:07;;;;;;;9.27;6.53;;;12.20;62.40;;;;;;5036541;28;20073;-54
2024/01/01 00:17:37;;;;;;;12.15;6.60;;;12.20;62.50;;;;;;5039382;28;20216;-56
2024/01/01 00:20:05;;;;;;;13.43;7.28;;;12.10;62.40;;;;;;5026188;28;20420;-56
2024/01/01 00:22:32;;;;;;;12.85;7.03;;;12.10;62.30;;;;;;5045189;28;20041;-56
2024/01/01 00:25:00;;;;;;;14.88;7.18;;;12.10;62.40;;;;;;5049525;28;20041;-59
2024/01/01 00:27:28;;;;;;;12.38;6.95;;;12.10;62.50;;;;;;5040962;28;20038;-54
2024/01/01 00:30:05;;;;;;;10.68;6.75;;;12.10;62.40;;;;;;5025652;28;20177;-55
2024/01/01 00:32:37;;;;;;;11.45;6.55;;;12.10;62.50;;;;;;5050936;28;20045;-54
2024/01/01 00:35:04;;;;;;;12.38;5.15;;;12.10;62.40;;;;;;5028487;28;20053;-55
2024/01/01 00:37:31;;;;;;;12.10;5.40;;;12.10;62.30;;;;;;5025524;28;20050;-55
2024/01/01 00:40:02;;;;;;;9.52;5.18;;;12.10;62.30;;;;;;5047950;28;20053;-54
2024/01/01 00:42:42;;;;;;;9.82;4.82;;;12.10;62.30;;;;;;5033250;28;20045;-54
2024/01/01 00:45:15;;;;;;;9.45;4.28;;;12.10;62.20;;;;;;5024576;28;20060;-57
2024/01/01 00:47:45;;;;;;;8.73;4.13;;;12.10;62.10;;;;;;5038884;28;20461;-52
2024/01/01 00:50:12;;;;;;;9.50;4.00;;;12.10;62.10;;;;;;5015854;28;20041;-55
2024/01/01 00:52:42;;;;;;;9.45;3.80;;;12.10;62.00;;;;;;5020172;28;20046;-52
2024/01/01 00:55:11;;;;;;;8.50;3.83;;;12.10;61.80;;;;;;5030171;28;20048;-53
2024/01/01 00:57:38;;;;;;;10.35;4.05;;;12.20;61.70;;;;;;5010200;28;20139;-56
2024/01/01 01:00:05;;;;;;;9.57;3.90;;;12.10;61.70;;;;;;5016566;28;20049;-57
2024/01/01 01:02:38;;;;;;;8.45;4.10;;;12.20;61.80;;;;;;5012861;28;20152;-52
2024/01/01 01:05:04;;;;;;;9.60;4.47;;;12.10;61.70;;;;;;5012549;28;20976;-56
2024/01/01 01:07:33;;;;;;;5.82;3.10;;;12.20;61.70;;;;;;5013477;28;20051;-53
2024/01/01 01:10:04;;;;;;;6.13;2.13;;;12.20;61.70;;;;;;5013935;28;20071;-54
2024/01/01 01:12:40;;;;;;;7.28;2.80;;;12.20;61.80;;;;;;5030776;28;20072;-55
2024/01/01 01:15:07;;;;;;;9.73;2.90;;;12.20;62.20;;;;;;5027014;28;20045;-55
2024/01/01 01:17:34;;;;;;;7.72;2.60;;;12.10;62.50;;;;;;5011703;28;20511;-56
2024/01/01 01:20:11;;;;;;;7.65;3.15;;;12.10;62.50;;;;;;5019532;28;20044;-58
2024/01/01 01:22:38;;;;;;;8.13;2.47;;;12.10;62.70;;;;;;5024137;28;20053;-54
2024/01/01 01:25:06;;;;;;;5.53;2.40;;;12.00;62.80;;;;;;5030172;28;20049;-58
2024/01/01 01:27:33;;;;;;;7.30;3.10;;;12.00;63.10;;;;;;5027110;28;20091;-54
2024/01/01 01:30:06;;;;;;;7.40;2.63;;;11.90;63.50;;;;;;5011052;28;20058;-52
2024/01/01 01:32:40;;;;;;;7.55;2.70;;;11.90;63.80;;;;;;5030505;28;20037;-55
2024/01/01 01:35:08;;;;;;;6.18;2.17;;;11.80;64.20;;;;;;5012630;28;20518;-56
2024/01/01 01:37:39;;;;;;;8.43;2.97;;;11.80;64.80;;;;;;5018731;28;20141;-54
2024/01/01 01:40:08;;;;;;;8.27;2.95;;;11.70;65.30;;;;;;5011110;28;20044;-56
2024/01/01 01:42:35;;;;;;;7.22;2.60;;;11.60;65.80;;;;;;5011454;28;20046;-56
2024/01/01 01:45:05;;;;;;;8.90;2.55;;;11.50;66.40;;;;;;5012281;28;20054;-56
2024/01/01 01:47:35;;;;;;;8.38;2.17;;;11.40;66.80;;;;;;5014186;28;20439;-54
2024/01/01 01:50:03;;;;;;;10.48;2.28;;;11.30;67.40;;;;;;5006852;28;20050;-55
2024/01/01 01:52:45;;;;;;;13.15;2.80;;;11.20;67.70;;;;;;5009699;28;20088;-52
2024/01/01 01:55:15;;;;;;;11.40;2.88;;;11.10;68.40;;;;;;5012573;28;20041;-56
2024/01/01 01:57:49;;;;;;;8.07;2.28;;;11.00;68.30;;;;;;5011480;28;20499;-55
2024/01/01 02:00:16;;;;;;;6.63;2.22;;;10.90;69.40;;;;;;5007704;28;20109;-53
2024/01/01 02:02:52;;;;;;;7.40;2.30;;;10.90;69.20;;;;;;5013482;28;20576;-55
2024/01/01 02:05:25;;;;;;;7.07;1.92;;;10.80;69.50;;;;;;5012480;28;20041;-56
2024/01/01 02:07:57;;;;;;;8.50;2.25;;;10.70;69.70;;;;;;5012102;28;20069;-57
2024/01/01 02:10:26;;;;;;;7.85;2.08;;;10.70;69.80;;;;;;5017673;28;20045;-53
2024/01/01 02:12:57;;;;;;;8.52;2.85;;;10.60;70.30;;;;;;5013021;28;20448;-52
2024/01/01 02:15:25;;;;;;;11.32;2.60;;;10.60;70.40;;;;;;5032354;28;20041;-56
2024/01/01 02:17:57;;;;;;;9.10;2.47;;;10.60;70.60;;;;;;5026418;28;20037;-58
2024/01/01 02:20:26;;;;;;;7.97;2.45;;;10.50;70.90;;;;;;5009745;28;20046;-56
2024/01/01 02:22:55;;;;;;;4.90;2.40;;;10.50;70.90;;;;;;5012629;28;20080;-58
2024/01/01 02:25:26;;;;;;;8.75;2.28;;;10.50;71.10;;;;;;5023610;28;20408;-56
2024/01/01 02:27:55;;;;;;;11.83;3.67;;;10.50;71.20;;;;;;5031920;28;20564;-58
2024/01/01 02:30:29;;;;;;;7.63;2.60;;;10.50;71.40;;;;;;5034020;28;20037;-56
2024/01/01 02:32:58;;;;;;;6.63;2.30;;;10.50;71.40;;;;;;5018865;28;20049;-54
2024/01/01 02:35:25;;;;;;;6.00;2.25;;;10.50;71.70;;;;;;5021865;28;20503;-57
2024/01/01 02:37:57;;;;;;;7.95;2.88;;;10.50;71.90;;;;;;5034570;28;20063;-54
2024/01/01 02:40:25;;;;;;;9.25;3.17;;;10.40;71.80;;;;;;5034110;28;20037;-55
2024/01/01 02:42:58;;;;;;;7.88;2.50;;;10.50;72.00;;;;;;5016317;28;20125;-53
2024/01/01 02:45:27;;;;;;;8.65;2.78;;;10.40;72.20;;;;;;5016443;28;20041;-53
2024/01/01 02:47:54;;;;;;;6.78;2.40;;;10.50;72.30;;;;;;5015002;28;20104;-57
2024/01/01 02:50:28;;;;;;;8.43;2.67;;;10.40;72.40;;;;;;5029242;28;20107;-54
2024/01/01 02:52:58;;;;;;;9.68;2.88;;;10.40;72.40;;;;;;5012606;28;20065;-52
2024/01/01 02:55:27;;;;;;;6.70;3.10;;;10.50;72.60;;;;;;5021981;28;20041;-56
2024/01/01 02:57:56;;;;;;;8.57;3.00;;;10.50;72.80;;;;;;5014613;28;20516;-58
2024/01/01 03:00:25;;;;;;;8.52;3.00;;;10.50;72.60;;;;;;5028617;28;20041;-56
2024/01/01 03:03:03;;;;;;;8.35;2.63;;;10.40;72.60;;;;;;5032776;28;20045;-53
2024/01/01 03:05:33;;;;;;;8.88;2.67;;;10.40;72.40;;;;;;5032795;28;20044;-52
2024/01/01 03:08:05;;;;;;;8.02;2.55;;;10.50;72.40;;;;;;5025976;28;20041;-52
2024/01/01 03:10:42;;;;;;;6.68;2.10;;;10.50;72.30;;;;;;5020389;28;20393;-57
2024/01/01 03:13:09;;;;;;;8.80;2.45;;;10.50;72.10;;;;;;5016981;28;20136;-53
2024/01/01 03:15:41;;;;;;;11.48;2.85;;;10.50;72.00;;;;;;5021726;28;20041;-53
2024/01/01 03:18:11;;;;;;;8.57;2.50;;;10.50;71.90;;;;;;5030145;28;20053;-54
2024/01/01 03:20:39;;;;;;;7.65;2.47;;;10.50;71.80;;;;;;5028114;28;20072;-53
2024/01/01 03:23:06;;;;;;;9.63;3.42;;;10.50;71.70;;;;;;5034795;28;20522;-57
2024/01/01 03:25:39;;;;;;;8.68;2.17;;;10.50;71.70;;;;;;5034107;28;20048;-55
2024/01/01 03:28:11;;;;;;;7.00;2.83;;;10.50;71.70;;;;;;5015747;28;20054;-55
2024/01/01 03:30:45;;;;;;;12.95;3.15;;;10.50;71.70;;;;;;5015513;28;20050;-53
2024/01/01 03:33:14;;;;;;;8.73;3.10;;;10.50;71.70;;;;;;5017149;28;20060;-53
2024/01/01 03:35:42;;;;;;;12.90;2.90;;;10.50;71.70;;;;;;5019451;28;20419;-52
2024/01/01 03:38:09;;;;;;;7.32;2.13;;;10.50;71.60;;;;;;5014995;28;20045;-59
2024/01/01 03:40:40;;;;;;;10.45;3.05;;;10.50;71.40;;;;;;5015145;28;20575;-57
2024/01/01 03:43:11;;;;;;;9.45;2.80;;;10.50;71.40;;;;;;5034112;28;20112;-52
2024/01/01 03:45:37;;;;;;;12.90;3.20;;;10.50;71.40;;;;;;5017171;28;20053;-56
2024/01/01 03:48:10;;;;;;;11.18;2.83;;;10.50;71.40;;;;;;5030659;28;20038;-52
2024/01/01 03:50:42;;;;;;;8.73;2.60;;;10.50;71.40;;;;;;5014182;28;20106;-53
2024/01/01 03:53:09;;;;;;;10.77;3.47;;;10.50;71.30;;;;;;5027756;28;20045;-52
2024/01/01 03:55:40;;;;;;;8.63;2.67;;;10.60;71.40;;;;;;5018255;28;20059;-56
2024/01/01 03:58:12;;;;;;;8.70;2.70;;;10.60;71.50;;;;;;5016044;28;20644;-57
2024/01/01 04:00:45;;;;;;;12.15;3.38;;;10.60;71.30;;;;;;5031377;28;20510;-55
2024/01/01 04:03:12;;;;;;;10.30;2.75;;;10.60;71.20;;;;;;5013842;28;20609;-54
2024/01/01 04:05:43;;;;;;;11.90;3.53;;;10.60;71.00;;;;;;5029362;28;20120;-52
2024/01/01 04:08:16;;;;;;;12.25;2.92;;;10.70;71.00;;;;;;5033767;28;20087;-53
2024/01/01 04:10:47;;;;;;;12.15;3.05;;;10.70;70.90;;;;;;5033171;28;20037;-57
2024/01/01 04:13:14;;;;;;;9.27;3.13;;;10.70;70.70;;;;;;5015039;28;20045;-56
2024/01/01 04:15:46;;;;;;;12.43;3.13;;;10.70;70.40;;;;;;5030657;28;20057;-56
2024/01/01 04:18:13;;;;;;;10.57;2.60;;;10.70;70.30;;;;;;5029641;28;20056;-53
2024/01/01 04:20:53;;;;;;;10.95;2.92;;;10.70;70.10;;;;;;5028519;28;20117;-54
2024/01/01 04:23:22;;;;;;;9.70;3.13;;;10.70;69.90;;;;;;5033634;28;20679;-52
2024/01/01 04:25:51;;;;;;;6.68;2.40;;;10.70;69.80;;;;;;5031771;28;20084;-53
2024/01/01 04:28:18;;;;;;;8.48;2.60;;;10.70;69.80;;;;;;5030689;28;20049;-55
2024/01/01 04:30:45;;;;;;;10.32;2.35;;;10.80;69.70;;;;;;5032639;28;20694;-54
2024/01/01 04:33:16;;;;;;;7.32;3.22;;;10.80;69.50;;;;;;5034875;28;20049;-55
2024/01/01 04:35:44;;;;;;;8.82;2.97;;;10.80;69.20;;;;;;5031202;28;20042;-54
2024/01/01 04:38:12;;;;;;;9.90;3.13;;;10.80;69.10;;;;;;5031532;28;20516;-57
2024/01/01 04:40:44;;;;;;;8.90;2.92;;;10.80;69.00;;;;;;5033096;28;20067;-52
2024/01/01 04:43:13;;;;;;;9.80;2.30;;;10.90;68.70;;;;;;5034379;28;20041;-54
2024/01/01 04:45:46;;;;;;;8.52;2.70;;;10.80;68.70;;;;;;5029305;28;20119;-52
2024/01/01 04:48:12;;;;;;;10.63;3.10;;;10.80;68.70;;;;;;5030246;28;20041;-54
2024/01/01 04:50:45;;;;;;;9.45;2.25;;;10.90;68.70;;;;;;5027550;28;20057;-56
2024/01/01 04:53:15;;;;;;;8.68;2.17;;;10.90;68.50;;;;;;5029734;28;20095;-52
2024/01/01 04:55:42;;;;;;;15.07;3.22;;;10.90;68.40;;;;;;5030474;28;20053;-54
2024/01/01 04:58:09;;;;;;;10.02;2.78;;;10.90;68.20;;;;;;5027427;28;20038;-54
2024/01/01 05:00:41;;;;;;;7.68;2.67;;;10.90;68.10;;;;;;5030170;28;20046;-55
2024/01/01 05:03:08;;;;;;;7.68;2.30;;;11.00;68.00;;;;;;5030715;28;20045;-56
2024/01/01 05:05:37;;;;;;;13.35;3.33;;;11.00;67.90;;;;;;5030475;28;20037;-55
2024/01/01 05:08:06;;;;;;;8.73;2.58;;;11.00;67.70;;;;;;5027698;28;20037;-52
2024/01/01 05:10:36;;;;;;;12.25;2.50;;;11.00;67.60;;;;;;5032769;28;20037;-60
2024/01/01 05:13:07;;;;;;;10.52;2.72;;;11.00;67.60;;;;;;5034426;28;20045;-54
2024/01/01 05:15:38;;;;;;;7.72;3.10;;;11.00;67.50;;;;;;5035635;28;20103;-57
2024/01/01 05:18:05;;;;;;;9.30;2.72;;;11.00;67.20;;;;;;5023471;28;20045;-53
2024/01/01 05:20:35;;;;;;;12.18;3.28;;;11.00;67.30;;;;;;5026577;28;20117;-51
2024/01/01 05:23:01;;;;;;;11.25;2.60;;;11.00;67.40;;;;;;5034313;28;20459;-53
2024/01/01 05:25:30;;;;;;;9.65;2.47;;;11.00;67.40;;;;;;5033193;28;20521;-55
2024/01/01 05:28:01;;;;;;;8.32;2.53;;;11.00;67.40;;;;;;5031892;28;20053;-58
2024/01/01 05:30:31;;;;;;;8.75;2.83;;;11.00;67.40;;;;;;5008122;28;20496;-59
2024/01/01 05:32:57;;;;;;;10.88;2.45;;;11.10;67.30;;;;;;5033986;28;20065;-54
2024/01/01 05:35:25;;;;;;;9.27;2.75;;;11.00;67.30;;;;;;5033259;28;20038;-54
2024/01/01 05:37:57;;;;;;;12.82;3.35;;;11.00;67.30;;;;;;5030790;28;20515;-54
2024/01/01 05:40:30;;;;;;;13.48;3.33;;;11.10;67.30;;;;;;5031482;28;20088;-55
2024/01/01 05:42:58;;;;;;;;;;;11.10;67.10;;;;;;5034536;28;20504;-58
2024/01/01 05:45:30;;;;;;;6.55;1.80;;;11.10;67.30;;;;;;5023847;28;19947;-52
2024/01/01 05:47:59;;;;;;;8.35;2.58;;;11.10;66.90;;;;;;5028011;28;20038;-53
2024/01/01 05:50:28;;;;;;;8.85;2.65;;;11.10;66.80;;;;;;5027214;28;20488;-54
2024/01/01 05:52:55;;;;;;;7.28;2.30;;;11.10;67.10;;;;;;5033797;28;20508;-52
2024/01/01 05:55:27;;;;;;;5.65;2.63;;;11.10;67.50;;;;;;5032990;28;20041;-52
2024/01/01 05:57:53;;;;;;;9.25;2.78;;;11.10;67.50;;;;;;5026361;28;20052;-54
2024/01/01 06:00:24;;;;;;;8.52;2.63;;;11.10;67.80;;;;;;5028625;28;20049;-57
2024/01/01 06:02:52;;;;;;;8.65;2.47;;;11.00;68.00;;;;;;5029274;28;20124;-53
2024/01/01 06:05:27;;;;;;;9.85;2.55;;;11.00;68.30;;;;;;5023255;28;22019;-52
2024/01/01 06:08:05;;;;;;;12.60;2.55;;;11.00;68.70;;;;;;5026293;28;20060;-54
2024/01/01 06:10:34;;;;;;;8.90;2.45;;;10.90;69.20;;;;;;5032299;28;20095;-53
2024/01/01 06:13:04;;;;;;;8.35;2.58;;;10.80;69.00;;;;;;5034593;28;20049;-53
2024/01/01 06:15:34;;;;;;;9.85;2.70;;;10.70;69.40;;;;;;5039811;28;20034;-59
2024/01/01 06:18:04;;;;;;;6.25;2.20;;;10.60;69.50;;;;;;5026551;28;20056;-54
2024/01/01 06:20:31;;;;;;;6.78;2.38;;;10.60;69.90;;;;;;5025390;28;20104;-56
2024/01/01 06:23:03;;;;;;;5.72;2.35;;;10.50;70.10;;;;;;5034475;28;20683;-55
2024/01/01 06:25:33;;;;;;;;;;;10.50;70.30;;;;;;5027609;28;20068;-55
2024/01/01 06:28:07;;;;;;;5.72;2.13;;;10.40;70.80;;;;;;5029881;28;19925;-57
2024/01/01 06:30:35;;;;;;;7.65;2.38;;;10.40;70.30;;;;;;5027098;28;20041;-58
2024/01/01 06:33:07;;;;;;;11.57;2.65;;;10.30;70.60;;;;;;5034374;28;20410;-54
2024/01/01 06:35:39;;;;;;;5.27;1.57;;;10.20;70.90;;;;;;5033902;28;20103;-52
2024/01/01 06:38:06;;;;;;;6.03;2.30;;;10.20;71.10;;;;;;5032933;28;20284;-52
2024/01/01 06:40:35;;;;;;;6.60;2.05;;;10.20;71.20;;;;;;5032411;28;20426;-54
2024/01/01 06:43:03;;;;;;;8.38;2.28;;;10.10;71.40;;;;;;5034516;28;20048;-58
2024/01/01 06:45:32;;;;;;;7.40;2.33;;;10.10;71.60;;;;;;5028529;28;20511;-59
2024/01/01 06:48:01;;;;;;;9.60;2.33;;;10.10;71.70;;;;;;5030114;28;20515;-55
2024/01/01 06:50:30;;;;;;;4.15;1.60;;;10.10;71.70;;;;;;5028716;28;20046;-55
2024/01/01 06:52:57;;;;;;;7.95;1.92;;;10.10;71.80;;;;;;5029197;28;20045;-54
2024/01/01 06:55:33;;;;;;;7.07;1.95;;;10.00;71.80;;;;;;5029147;28;20119;-55
2024/01/01 06:58:00;;;;;;;8.18;2.05;;;10.00;71.90;;;;;;5026414;28;20069;-53
2024/01/01 07:00:26;;;;;;;6.80;1.92;;;10.10;71.80;;;;;;5029286;28;20122;-55
2024/01/01 07:02:57;;;;;;;4.13;1.65;;;10.10;71.80;;;;;;5029793;28;20038;-55
2024/01/01 07:05:29;;;;;;;5.75;1.92;;;10.00;71.70;;;;;;5029867;28;20518;-54
2024/01/01 07:07:57;;;;;;;5.35;1.88;;;10.10;71.80;;;;;;5025790;28;20423;-53
2024/01/01 07:10:26;;;;;;;10.00;2.22;;;10.00;71.70;;;;;;5031978;28;20053;-58
2024/01/01 07:12:52;;;;;;;6.22;1.92;;;10.10;71.80;;;;;;5036297;28;20041;-53
2024/01/01 07:15:21;;;;;;;7.68;1.98;;;10.10;71.60;;;;;;5038681;28;20045;-53
2024/01/01 07:17:51;;;;;;;7.32;2.05;;;10.10;71.80;;;;;;5029378;28;20076;-54
2024/01/01 07:20:37;;;;;;;7.40;1.85;;;10.10;71.70;;;;;;5034162;28;20052;-55
2024/01/01 07:23:06;;;;;;;4.53;1.45;;;10.10;71.60;;;;;;5039238;28;20067;-57
2024/01/01 07:25:33;;;;;;;7.05;1.80;;;10.10;71.60;;;;;;5037436;28;20040;-56
2024/01/01 07:28:07;;;;;;;3.67;1.50;;;10.10;71.40;;;;;;5035395;28;20040;-52
2024/01/01 07:30:37;;;;;;;4.70;1.52;;;10.20;71.30;;;;;;5033161;28;20041;-56
2024/01/01 07:33:09;;;;;;;4.40;1.23;;;10.20;71.30;;;;;;5039053;28;20044;-54
2024/01/01 07:35:36;;;;;;;6.38;2.13;;;10.20;71.30;;;;;;5037457;28;20388;-52
2024/01/01 07:38:03;;;;;;;4.13;1.20;;;10.20;71.20;;;;;;5035091;28;20555;-53
2024/01/01 07:40:38;;;;;;;2.92;1.10;;;10.30;71.20;;;;;;5031124;28;20510;-55
2024/01/01 07:43:07;;;;;;;3.13;1.55;;;10.20;71.10;;;;;;5020589;28;20080;-52
2024/01/01 07:45:40;;;;;;;4.82;1.30;;;10.30;71.10;;;;;;5038698;28;20042;-52
2024/01/01 07:48:09;;;;;;;4.85;1.33;;;10.30;70.90;;;;;;5031366;28;20052;-59
2024/01/01 07:50:39;;;;;;;4.65;1.60;;;10.30;70.90;;;;;;5035111;28;20103;-55
2024/01/01 07:53:15;;;;;;;2.85;1.33;;;10.30;71.00;;;;;;5032338;28;20512;-53
2024/01/01 07:55:46;;;;;;;4.03;1.55;;;10.30;71.10;;;;;;5032643;28;20120;-53
2024/01/01 07:58:16;;;;;;;5.95;1.15;;;10.30;71.30;;;;;;5029197;28;20045;-53
2024/01/01 08:00:45;;;;;;;3.28;1.52;;;10.30;71.20;;;;;;5032334;28;20043;-53
2024/01/01 08:03:13;;;;;;;3.22;1.60;;;10.30;71.20;;;;;;5032503;28;20046;-52
2024/01/01 08:05:40;;;;;;;4.20;1.48;;;10.30;71.30;;;;;;5037125;28;20496;-52
2024/01/01 08:08:09;;;;;;;5.43;1.42;;;10.20;71.20;;;;;;5034551;28;20455;-55
2024/01/01 08:10:43;;;;;;;4.68;1.52;;;10.20;71.20;;;;;;5032062;28;20057;-55
2024/01/01 08:13:09;;;;;;;5.18;1.65;;;10.20;71.20;;;;;;5035941;28;20045;-52
2024/01/01 08:15:36;;;;;;;6.90;2.13;;;10.20;71.30;;;;;;5037139;28;20076;-55
2024/01/01 08:18:03;;;;;;;5.85;1.42;;;10.20;71.20;;;;;;5032956;28;20076;-57
2024/01/01 08:20:30;;;;;;;2.70;1.48;;;10.20;71.20;;;;;;5034374;28;20411;-59
2024/01/01 08:22:57;;;;;;;11.40;1.90;;;10.20;71.10;;;;;;5036845;28;20123;-56
2024/01/01 08:25:24;;;;;;;5.28;1.48;;;10.30;71.20;;;;;;5037683;28;20048;-55
2024/01/01 08:27:50;;;;;;;6.38;1.60;;;10.30;71.20;;;;;;5033182;28;20072;-53
2024/01/01 08:30:18;;;;;;;6.00;1.52;;;10.30;71.10;;;;;;5038650;28;20491;-53
2024/01/01 08:32:48;;;;;;;5.10;1.52;;;10.30;71.00;;;;;;5036614;28;20496;-54
2024/01/01 08:35:20;;;;;;;2.70;1.20;;;10.30;71.00;;;;;;5034900;28;20045;-55
2024/01/01 08:37:50;;;;;;;4.18;1.42;;;10.30;70.90;;;;;;5029699;28;20179;-54
2024/01/01 08:40:22;;;;;;;4.88;1.70;;;10.30;71.00;;;;;;5035609;28;20144;-54
2024/01/01 08:42:52;;;;;;;3.58;1.60;;;10.30;71.00;;;;;;5036863;28;20048;-54
2024/01/01 08:45:21;;;;;;;3.50;1.58;;;10.30;71.10;;;;;;5031650;28;20039;-55
2024/01/01 08:47:48;;;;;;;10.18;2.17;;;10.40;71.20;;;;;;5034815;28;20124;-56
2024/01/01 08:50:15;;;;;;;6.40;1.90;;;10.30;71.10;;;;;;5033381;28;20136;-54
2024/01/01 08:52:45;;;;;;;3.70;1.73;;;10.40;71.10;;;;;;5046455;28;20134;-52
2024/01/01 08:55:20;;;;;;;6.85;1.85;;;10.40;71.00;;;;;;5043579;28;20102;-57
2024/01/01 08:57:52;;;;;;;6.75;1.85;;;10.40;71.00;;;;;;5028577;28;20072;-53
2024/01/01 09:00:21;;;;;;;8.50;1.67;;;10.40;70.90;;;;;;5030832;28;20128;-53
2024/01/01 09:02:51;;;;;;;6.78;1.83;;;10.40;70.80;;;;;;5031561;28;20048;-52
2024/01/01 09:05:17;;;;;;;6.30;1.58;;;10.40;70.70;;;;;;5029055;28;20152;-55
2024/01/01 09:07:47;;;;;;;8.00;1.80;;;10.40;70.70;;;;;;5032596;28;20052;-52
2024/01/01 09:10:16;;;;;;;4.57;1.65;;;10.40;70.70;;;;;;5036168;28;20041;-56
2024/01/01 09:12:45;;;;;;;4.43;1.90;;;10.40;70.70;;;;;;5036936;28;20519;-53
2024/01/01 09:15:17;;;;;;;7.00;1.88;;;10.50;70.70;;;;;;5034680;28;20072;-53
2024/01/01 09:17:49;;;;;;;5.88;1.55;;;10.50;70.70;;;;;;5026520;28;20044;-54
2024/01/01 09:20:16;;;;;;;6.55;2.22;;;10.50;70.80;;;;;;5031904;28;20127;-54
2024/01/01 09:22:56;;;;;;;5.88;1.88;;;10.50;70.80;;;;;;5034040;28;20111;-54
2024/01/01 09:25:22;;;;;;;3.67;2.30;;;10.50;70.70;;;;;;5036471;28;20055;-53
2024/01/01 09:27:54;;;;;;;8.02;2.45;;;10.50;70.60;;;;;;5034728;28;20083;-56
2024/01/01 09:30:23;;;;;;;7.28;2.40;;;10.50;70.60;;;;;;5033917;28;20637;-52
2024/01/01 09:33:00;;;;;;;6.13;2.10;;;10.60;70.60;;;;;;5037344;28;20064;-54
2024/01/01 09:35:36;;;;;;;5.55;2.30;;;10.60;70.40;;;;;;5035628;28;20053;-55
2024/01/01 09:38:03;;;;;;;4.70;1.75;;;10.60;70.20;;;;;;5036105;28;20405;-53
2024/01/01 09:40:30;;;;;;;3.63;1.65;;;10.60;70.10;;;;;;5036642;28;20056;-53
2024/01/01 09:42:57;;;;;;;3.60;1.85;;;10.60;70.00;;;;;;5038585;28;20065;-57
2024/01/01 09:45:28;;;;;;;3.70;1.83;;;10.50;70.00;;;;;;5033708;28;20080;-54
2024/01/01 09:47:56;;;;;;;;;;;10.50;70.00;;;;;;5034485;28;20042;-52
2024/01/01 09:50:29;;;;;;;5.50;1.55;;;10.60;70.20;;;;;;5033245;28;19986;-54
2024/01/01 09:52:59;;;;;;;7.72;2.10;;;10.60;69.90;;;;;;5034630;28;20084;-53
2024/01/01 09:55:30;;;;;;;3.65;1.58;;;10.60;70.00;;;;;;5037641;28;20051;-58
2024/01/01 09:58:01;;;;;;;6.88;1.65;;;10.60;70.00;;;;;;5030178;28;20046;-52
2024/01/01 10:00:34;;;;;;;5.60;2.17;;;10.60;70.00;;;;;;5027384;28;20051;-53
2024/01/01 10:03:10;;;;;;;7.40;2.45;;;10.60;70.10;;;;;;5030584;28;20041;-52
2024/01/01 10:05:41;;;;;;;5.05;1.95;;;10.60;70.20;;;;;;5025437;28;20060;-56
2024/01/01 10:08:13;;;;;;;4.60;1.60;;;10.70;70.30;;;;;;5030598;28;20447;-53
2024/01/01 10:10:47;;;;;;;3.00;1.15;;;10.70;70.20;;;;;;5036235;28;20052;-54
2024/01/01 10:13:16;;;;;;;6.35;1.90;;;10.70;70.00;;;;;;5033518;28;20044;-58
2024/01/01 10:15:45;;;;;;;8.88;1.98;;;10.80;69.60;;;;;;5031351;28;20053;-53
2024/01/01 10:18:16;;;;;;;4.32;1.65;;;10.80;69.60;;;;;;5029200;28;20037;-52
2024/01/01 10:20:51;;;;;;;6.28;2.58;;;10.80;69.80;;;;;;5033121;28;20099;-54
2024/01/01 10:23:25;;;;;;;5.38;1.77;;;10.80;69.90;;;;;;5033620;28;20565;-53
2024/01/01 10:26:06;;;;;;;5.40;1.67;;;10.90;70.00;;;;;;5036651;28;20116;-53
2024/01/01 10:28:36;;;;;;;4.88;1.30;;;10.90;69.70;;;;;;5031505;28;20107;-52
2024/01/01 10:31:12;;;;;;;4.68;2.05;;;11.00;69.60;;;;;;5038152;28;20034;-56
2024/01/01 10:33:50;;;;;;;4.15;1.63;;;11.00;69.60;;;;;;5036530;28;20124;-58
2024/01/01 10:36:20;;;;;;;2.10;1.08;;;11.10;69.30;;;;;;5033089;28;20136;-55
2024/01/01 10:38:49;;;;;;;3.08;1.52;;;11.10;69.10;;;;;;5029372;28;20456;-55
2024/01/01 10:41:18;;;;;;;;;;;11.10;68.90;;;;;;5033674;28;20478;-52
2024/01/01 10:43:51;;;;;;;7.97;2.28;;;11.20;69.60;;;;;;5038034;28;19967;-56
2024/01/01 10:46:29;;;;;;;4.38;1.50;;;11.10;69.00;;;;;;5029841;28;20435;-52
2024/01/01 10:48:58;;;;;;;7.38;2.17;;;11.20;68.80;;;;;;5028592;28;20041;-55
2024/01/01 10:51:41;;;;;;;3.05;1.30;;;11.20;68.90;;;;;;5041370;28;20055;-59
2024/01/01 10:54:32;;;;;;;5.28;1.75;;;11.20;68.80;;;;;;5030835;28;20100;-53
2024/01/01 10:57:21;;;;;;;5.82;1.80;;;11.20;68.70;;;;;;5031237;28;20120;-55
2024/01/01 11:00:07;;;;;;;4.85;1.52;;;11.20;68.50;;;;;;5030593;28;20045;-54
2024/01/01 11:02:36;;;;;;;4.30;1.80;;;11.30;68.40;;;;;;5033002;28;20056;-55
2024/01/01 11:05:10;;;;;;;6.35;1.50;;;11.20;68.40;;;;;;5033800;28;20137;-54
2024/01/01 11:07:53;;;;;;;6.50;1.88;;;11.30;68.60;;;;;;5031826;28;20045;-55
2024/01/01 11:10:41;;;;;;;4.25;1.65;;;11.30;68.70;;;;;;5039460;28;20122;-56
2024/01/01 11:13:26;;;;;;;3.53;1.90;;;11.30;68.60;;;;;;5023624;28;20071;-53
2024/01/01 11:16:03;;;;;;;4.40;1.75;;;11.30;68.50;;;;;;5038847;28;20037;-54
2024/01/01 11:18:38;;;;;;;4.68;1.30;;;11.30;68.60;;;;;;5028461;28;20115;-55
2024/01/01 11:21:09;;;;;;;4.47;1.45;;;11.30;68.70;;;;;;5038551;28;20415;-53
2024/01/01 11:23:48;;;;;;;7.72;1.58;;;11.30;68.70;;;;;;5040552;28;20594;-55
2024/01/01 11:26:23;;;;;;;7.75;1.83;;;11.30;68.60;;;;;;5036512;28;20041;-56
2024/01/01 11:28:51;;;;;;;7.55;1.98;;;11.30;68.70;;;;;;5033548;28;20045;-56
2024/01/01 11:31:30;;;;;;;4.28;1.67;;;11.30;68.70;;;;;;5037333;28;20116;-51
2024/01/01 11:34:05;;;;;;;7.25;2.13;;;11.30;68.60;;;;;;5041068;28;20041;-54
2024/01/01 11:36:47;;;;;;;7.50;2.15;;;11.40;68.70;;;;;;5033197;28;20041;-59
2024/01/01 11:39:21;;;;;;;5.05;1.48;;;11.40;68.70;;;;;;5042035;28;20045;-52
2024/01/01 11:41:49;;;;;;;5.30;2.38;;;11.40;68.50;;;;;;5029191;28;20041;-52
2024/01/01 11:44:17;;;;;;;6.60;1.70;;;11.40;68.50;;;;;;5040809;28;20447;-55
2024/01/01 11:46:46;;;;;;;7.03;2.55;;;11.40;68.50;;;;;;5035064;28;20054;-52
2024/01/01 11:49:13;;;;;;;7.72;2.55;;;11.50;68.40;;;;;;5035145;28;20037;-52
2024/01/01 11:51:59;;;;;;;12.85;2.28;;;11.50;68.30;;;;;;5034161;28;20029;-52
2024/01/01 11:54:34;;;;;;;5.25;2.47;;;11.50;68.10;;;;;;5031853;28;20040;-52
2024/01/01 11:57:08;;;;;;;10.45;1.98;;;11.60;68.20;;;;;;5032285;28;20550;-58
2024/01/01 11:59:36;;;;;;;12.27;2.97;;;11.60;68.00;;;;;;5029792;28;20120;-52
2024/01/01 12:02:05;;;;;;;8.10;3.03;;;11.60;68.10;;;;;;5031951;28;20085;-55
2024/01/01 12:04:36;;;;;;;7.97;2.53;;;11.60;67.90;;;;;;5032258;28;20095;-54
2024/01/01 12:07:08;;;;;;;8.82;2.72;;;11.60;67.80;;;;;;5032839;28;20041;-56
2024/01/01 12:09:36;;;;;;;11.20;3.15;;;11.70;67.90;;;;;;5040374;28;20033;-52
2024/01/01 12:12:12;;;;;;;11.02;3.42;;;11.70;67.70;;;;;;5040508;28;20037;-57
2024/01/01 12:14:43;;;;;;;6.80;2.95;;;11.70;67.70;;;;;;5033644;28;20073;-57
2024/01/01 12:17:13;;;;;;;8.98;2.92;;;11.80;67.70;;;;;;5037768;28;20061;-54
2024/01/01 12:19:40;;;;;;;11.10;2.65;;;11.80;67.70;;;;;;5030431;28;20124;-57
2024/01/01 12:22:20;;;;;;;8.57;2.65;;;11.80;67.40;;;;;;5038548;28;20037;-57
2024/01/01 12:24:56;;;;;;;9.55;2.58;;;11.90;66.90;;;;;;5030542;28;20073;-59
2024/01/01 12:27:23;;;;;;;7.47;2.80;;;11.90;66.60;;;;;;5039084;28;20060;-57
2024/01/01 12:29:57;;;;;;;9.15;2.65;;;12.00;66.90;;;;;;5040249;28;20045;-56
2024/01/01 12:32:27;;;;;;;9.10;3.13;;;11.90;66.90;;;;;;5041544;28;20051;-55
2024/01/01 12:34:54;;;;;;;8.68;3.25;;;11.90;66.70;;;;;;5034049;28;20115;-59
2024/01/01 12:37:22;;;;;;;11.77;3.60;;;11.90;67.40;;;;;;5041493;28;20510;-54
2024/01/01 12:39:50;;;;;;;7.43;3.03;;;11.90;66.60;;;;;;5039181;28;20432;-57
2024/01/01 12:42:18;;;;;;;8.48;3.08;;;11.90;66.50;;;;;;5032243;28;20108;-58
2024/01/01 12:44:45;;;;;;;11.73;3.55;;;11.90;66.60;;;;;;5033461;28;20088;-55
2024/01/01 12:47:17;;;;;;;16.88;3.72;;;11.90;66.40;;;;;;5041069;28;20515;-55
2024/01/01 12:49:43;;;;;;;9.63;3.17;;;11.90;66.30;;;;;;5032307;28;20037;-56
2024/01/01 12:52:17;;;;;;;9.40;3.65;;;11.90;66.40;;;;;;5033142;28;20034;-54
2024/01/01 12:54:48;;;;;;;7.72;2.80;;;11.90;66.20;;;;;;5030885;28;20041;-54
2024/01/01 12:57:15;;;;;;;12.32;3.85;;;11.90;66.20;;;;;;5030904;28;20390;-56
2024/01/01 12:59:45;;;;;;;12.50;3.38;;;11.90;66.20;;;;;;5020991;28;20033;-57
2024/01/01 13:02:12;;;;;;;10.30;4.55;;;12.00;66.20;;;;;;5031083;28;20049;-56